sensor_id;sensor_type;location;lat;lon;timestamp;pressure;altitude;pressure_sealevel;temperature;humidity
55490;BME280;44029;52.956;4.772;2023-02-17T00:00:59;101868.25;;;9.59;100.00
55490;BME280;44029;52.956;4.772;2023-02-17T00:03:24;101874.31;;;9.68;100.00
55490;BME280;44029;52.956;4.772;2023-02-17T00:05:50;101869.69;;;9.68;100.00
55490;BME280;44029;52.956;4.772;2023-02-17T00:08:15;101864.41;;;9.74;100.00
55490;BME280;44029;52.956;4.772;2023-02-17T00:10:41;101864.22;;;9.68;100.00
55490;BME280;44029;52.956;4.772;2023-02-17T00:13:06;101857.31;;;9.59;100.00
55490;BME280;44029;52.956;4.772;2023-02-17T00:15:32;101859.66;;;9.56;100.00
55490;BME280;44029;52.956;4.772;2023-02-17T00:17:57;101860.06;;;9.53;100.00
55490;BME280;44029;52.956;4.772;2023-02-17T00:20:22;101841.53;;;9.55;100.00
55490;BME280;44029;52.956;4.772;2023-02-17T00:22:48;101830.59;;;9.55;100.00
55490;BME280;44029;52.956;4.772;2023-02-17T00:25:13;101824.28;;;9.54;100.00
55490;BME280;44029;52.956;4.772;2023-02-17T00:27:38;101813.00;;;9.44;100.00
55490;BME280;44029;52.956;4.772;2023-02-17T00:30:04;101817.41;;;9.45;100.00
55490;BME280;44029;52.956;4.772;2023-02-17T00:32:30;101820.16;;;9.38;100.00
55490;BME280;44029;52.956;4.772;2023-02-17T00:34:55;101820.81;;;9.40;100.00
55490;BME280;44029;52.956;4.772;2023-02-17T00:37:23;101810.09;;;9.39;100.00
55490;BME280;44029;52.956;4.772;2023-02-17T00:39:48;101797.50;;;9.31;100.00
55490;BME280;44029;52.956;4.772;2023-02-17T00:42:13;101801.22;;;9.43;100.00
55490;BME280;44029;52.956;4.772;2023-02-17T00:44:38;101810.91;;;9.39;100.00
55490;BME280;44029;52.956;4.772;2023-02-17T00:47:04;101820.44;;;9.30;100.00
55490;BME280;44029;52.956;4.772;2023-02-17T00:49:29;101820.81;;;9.34;100.00
55490;BME280;44029;52.956;4.772;2023-02-17T00:52:01;101830.03;;;9.46;100.00
55490;BME280;44029;52.956;4.772;2023-02-17T00:54:27;101837.25;;;9.27;100.00
55490;BME280;44029;52.956;4.772;2023-02-17T00:56:53;101837.25;;;9.27;100.00
55490;BME280;44029;52.956;4.772;2023-02-17T00:59:18;101845.91;;;9.24;100.00
55490;BME280;44029;52.956;4.772;2023-02-17T01:01:44;101843.78;;;9.26;100.00
55490;BME280;44029;52.956;4.772;2023-02-17T01:04:09;101842.31;;;9.30;100.00
55490;BME280;44029;52.956;4.772;2023-02-17T01:06:36;101830.06;;;9.33;100.00
55490;BME280;44029;52.956;4.772;2023-02-17T01:09:04;101833.47;;;9.35;100.00
55490;BME280;44029;52.956;4.772;2023-02-17T01:11:32;101837.84;;;9.36;100.00
55490;BME280;44029;52.956;4.772;2023-02-17T01:14:01;101830.47;;;9.43;100.00
55490;BME280;44029;52.956;4.772;2023-02-17T01:16:32;101850.19;;;9.52;100.00
55490;BME280;44029;52.956;4.772;2023-02-17T01:19:04;101838.38;;;9.58;100.00
55490;BME280;44029;52.956;4.772;2023-02-17T01:21:31;101821.59;;;9.47;100.00
55490;BME280;44029;52.956;4.772;2023-02-17T01:23:58;101818.41;;;9.51;100.00
55490;BME280;44029;52.956;4.772;2023-02-17T01:26:26;101812.06;;;9.57;100.00
55490;BME280;44029;52.956;4.772;2023-02-17T01:28:52;101822.03;;;9.44;100.00
55490;BME280;44029;52.956;4.772;2023-02-17T01:31:19;101811.53;;;9.41;100.00
55490;BME280;44029;52.956;4.772;2023-02-17T01:33:45;101802.56;;;9.27;100.00
55490;BME280;44029;52.956;4.772;2023-02-17T01:36:12;101808.09;;;9.53;100.00
55490;BME280;44029;52.956;4.772;2023-02-17T01:38:38;101799.75;;;9.41;100.00
55490;BME280;44029;52.956;4.772;2023-02-17T01:41:04;101786.03;;;9.47;100.00
55490;BME280;44029;52.956;4.772;2023-02-17T01:43:30;101789.91;;;9.33;100.00
55490;BME280;44029;52.956;4.772;2023-02-17T01:46:00;101798.66;;;9.48;100.00
55490;BME280;44029;52.956;4.772;2023-02-17T01:48:29;101790.97;;;9.64;100.00
55490;BME280;44029;52.956;4.772;2023-02-17T01:51:03;101797.13;;;9.59;100.00
55490;BME280;44029;52.956;4.772;2023-02-17T01:53:41;101801.91;;;9.64;100.00
55490;BME280;44029;52.956;4.772;2023-02-17T01:56:08;101809.78;;;9.54;100.00
55490;BME280;44029;52.956;4.772;2023-02-17T01:58:34;101800.25;;;9.63;100.00
55490;BME280;44029;52.956;4.772;2023-02-17T02:01:02;101791.44;;;9.61;100.00
55490;BME280;44029;52.956;4.772;2023-02-17T02:03:31;101784.25;;;9.66;100.00
55490;BME280;44029;52.956;4.772;2023-02-17T02:05:59;101788.56;;;9.49;100.00
55490;BME280;44029;52.956;4.772;2023-02-17T02:08:27;101786.44;;;9.51;100.00
55490;BME280;44029;52.956;4.772;2023-02-17T02:10:54;101779.78;;;9.40;100.00
55490;BME280;44029;52.956;4.772;2023-02-17T02:13:19;101775.50;;;9.51;100.00
55490;BME280;44029;52.956;4.772;2023-02-17T02:15:56;101783.47;;;9.84;100.00
55490;BME280;44029;52.956;4.772;2023-02-17T02:18:30;101761.59;;;9.53;100.00
55490;BME280;44029;52.956;4.772;2023-02-17T02:21:29;101759.63;;;9.92;100.00
55490;BME280;44029;52.956;4.772;2023-02-17T02:24:19;101746.88;;;9.79;100.00
55490;BME280;44029;52.956;4.772;2023-02-17T02:30:22;101750.00;;;9.82;100.00
55490;BME280;44029;52.956;4.772;2023-02-17T02:35:14;101739.97;;;9.76;100.00
55490;BME280;44029;52.956;4.772;2023-02-17T02:37:46;101719.25;;;9.87;100.00
55490;BME280;44029;52.956;4.772;2023-02-17T02:40:15;101728.66;;;9.66;100.00
55490;BME280;44029;52.956;4.772;2023-02-17T02:42:44;101707.50;;;9.55;100.00
55490;BME280;44029;52.956;4.772;2023-02-17T02:45:11;101711.03;;;9.62;100.00
55490;BME280;44029;52.956;4.772;2023-02-17T02:47:56;101698.41;;;9.86;100.00
55490;BME280;44029;52.956;4.772;2023-02-17T02:50:31;101687.72;;;9.59;100.00
55490;BME280;44029;52.956;4.772;2023-02-17T03:01:56;101687.69;;;9.84;100.00
55490;BME280;44029;52.956;4.772;2023-02-17T03:09:27;101684.91;;;9.66;100.00
55490;BME280;44029;52.956;4.772;2023-02-17T03:11:57;101693.16;;;9.84;100.00
55490;BME280;44029;52.956;4.772;2023-02-17T03:14:22;101682.84;;;9.61;100.00
55490;BME280;44029;52.956;4.772;2023-02-17T03:16:49;101668.44;;;9.73;100.00
55490;BME280;44029;52.956;4.772;2023-02-17T03:19:17;101676.38;;;9.81;100.00
55490;BME280;44029;52.956;4.772;2023-02-17T03:21:46;101659.25;;;9.85;100.00
55490;BME280;44029;52.956;4.772;2023-02-17T03:24:13;101654.09;;;9.77;100.00
55490;BME280;44029;52.956;4.772;2023-02-17T03:26:38;101656.66;;;9.72;100.00
55490;BME280;44029;52.956;4.772;2023-02-17T03:29:04;101661.31;;;9.72;100.00
55490;BME280;44029;52.956;4.772;2023-02-17T03:31:29;101658.72;;;9.77;100.00
55490;BME280;44029;52.956;4.772;2023-02-17T03:33:55;101660.56;;;9.83;100.00
55490;BME280;44029;52.956;4.772;2023-02-17T03:36:20;101649.06;;;9.74;100.00
55490;BME280;44029;52.956;4.772;2023-02-17T03:38:46;101645.31;;;9.68;100.00
55490;BME280;44029;52.956;4.772;2023-02-17T03:41:11;101645.50;;;9.74;100.00
55490;BME280;44029;52.956;4.772;2023-02-17T03:43:36;101651.78;;;9.74;100.00
55490;BME280;44029;52.956;4.772;2023-02-17T03:46:02;101658.00;;;9.63;100.00
55490;BME280;44029;52.956;4.772;2023-02-17T03:48:27;101642.81;;;9.67;100.00
55490;BME280;44029;52.956;4.772;2023-02-17T03:50:53;101640.69;;;9.69;100.00
55490;BME280;44029;52.956;4.772;2023-02-17T03:53:18;101629.56;;;9.64;100.00
55490;BME280;44029;52.956;4.772;2023-02-17T03:55:43;101630.94;;;9.73;100.00
55490;BME280;44029;52.956;4.772;2023-02-17T03:58:09;101617.97;;;9.68;100.00
55490;BME280;44029;52.956;4.772;2023-02-17T04:00:34;101612.53;;;9.62;100.00
55490;BME280;44029;52.956;4.772;2023-02-17T04:02:59;101600.69;;;9.50;100.00
55490;BME280;44029;52.956;4.772;2023-02-17T04:05:25;101588.34;;;9.40;100.00
55490;BME280;44029;52.956;4.772;2023-02-17T04:07:50;101585.38;;;9.42;100.00
55490;BME280;44029;52.956;4.772;2023-02-17T04:10:16;101588.78;;;9.37;100.00
55490;BME280;44029;52.956;4.772;2023-02-17T04:12:41;101584.97;;;9.38;100.00
55490;BME280;44029;52.956;4.772;2023-02-17T04:15:07;101604.75;;;9.40;100.00
55490;BME280;44029;52.956;4.772;2023-02-17T04:17:35;101615.19;;;9.50;100.00
55490;BME280;44029;52.956;4.772;2023-02-17T04:20:00;101606.41;;;9.41;100.00
55490;BME280;44029;52.956;4.772;2023-02-17T04:22:26;101625.97;;;9.45;100.00
55490;BME280;44029;52.956;4.772;2023-02-17T04:24:51;101638.59;;;9.46;100.00
55490;BME280;44029;52.956;4.772;2023-02-17T04:27:16;101640.53;;;9.39;100.00
55490;BME280;44029;52.956;4.772;2023-02-17T04:29:42;101636.63;;;9.53;100.00
55490;BME280;44029;52.956;4.772;2023-02-17T04:32:07;101629.53;;;9.45;100.00
55490;BME280;44029;52.956;4.772;2023-02-17T04:34:32;101629.91;;;9.49;100.00
55490;BME280;44029;52.956;4.772;2023-02-17T04:36:58;101644.19;;;9.51;100.00
55490;BME280;44029;52.956;4.772;2023-02-17T04:39:23;101659.97;;;9.56;100.00
55490;BME280;44029;52.956;4.772;2023-02-17T04:41:48;101661.63;;;9.57;100.00
55490;BME280;44029;52.956;4.772;2023-02-17T04:44:13;101657.66;;;9.53;100.00
55490;BME280;44029;52.956;4.772;2023-02-17T04:46:39;101628.34;;;9.60;100.00
55490;BME280;44029;52.956;4.772;2023-02-17T04:49:04;101636.56;;;9.60;100.00
55490;BME280;44029;52.956;4.772;2023-02-17T04:51:30;101620.53;;;9.63;100.00
55490;BME280;44029;52.956;4.772;2023-02-17T04:53:55;101619.75;;;9.56;100.00
55490;BME280;44029;52.956;4.772;2023-02-17T04:56:20;101597.88;;;9.56;100.00
55490;BME280;44029;52.956;4.772;2023-02-17T04:58:46;101599.34;;;9.59;100.00
55490;BME280;44029;52.956;4.772;2023-02-17T05:01:11;101603.50;;;9.61;100.00
55490;BME280;44029;52.956;4.772;2023-02-17T05:03:36;101589.13;;;9.66;100.00
55490;BME280;44029;52.956;4.772;2023-02-17T05:06:02;101588.41;;;9.59;100.00
55490;BME280;44029;52.956;4.772;2023-02-17T05:08:27;101583.97;;;9.58;100.00
55490;BME280;44029;52.956;4.772;2023-02-17T05:10:53;101585.88;;;9.57;100.00
55490;BME280;44029;52.956;4.772;2023-02-17T05:13:18;101589.84;;;9.61;100.00
55490;BME280;44029;52.956;4.772;2023-02-17T05:15:44;101590.22;;;9.65;100.00
55490;BME280;44029;52.956;4.772;2023-02-17T05:18:11;101599.38;;;9.77;100.00
55490;BME280;44029;52.956;4.772;2023-02-17T05:20:36;101604.44;;;9.74;100.00
55490;BME280;44029;52.956;4.772;2023-02-17T05:23:02;101624.00;;;9.77;100.00
55490;BME280;44029;52.956;4.772;2023-02-17T05:25:27;101611.53;;;9.81;100.00
55490;BME280;44029;52.956;4.772;2023-02-17T05:27:53;101603.53;;;9.80;100.00
55490;BME280;44029;52.956;4.772;2023-02-17T05:30:19;101615.63;;;9.91;100.00
55490;BME280;44029;52.956;4.772;2023-02-17T05:32:44;101602.31;;;9.76;100.00
55490;BME280;44029;52.956;4.772;2023-02-17T05:35:10;101577.59;;;9.82;100.00
55490;BME280;44029;52.956;4.772;2023-02-17T05:37:35;101578.09;;;9.79;100.00
55490;BME280;44029;52.956;4.772;2023-02-17T05:40:01;101578.53;;;9.76;100.00
55490;BME280;44029;52.956;4.772;2023-02-17T05:42:27;101577.53;;;9.89;100.00
55490;BME280;44029;52.956;4.772;2023-02-17T05:44:54;101581.59;;;9.86;100.00
55490;BME280;44029;52.956;4.772;2023-02-17T05:47:20;101589.16;;;9.84;100.00
55490;BME280;44029;52.956;4.772;2023-02-17T05:49:45;101582.47;;;9.80;100.00
55490;BME280;44029;52.956;4.772;2023-02-17T05:52:10;101587.13;;;9.80;100.00
55490;BME280;44029;52.956;4.772;2023-02-17T05:54:36;101571.38;;;9.94;100.00
55490;BME280;44029;52.956;4.772;2023-02-17T05:57:01;101581.44;;;9.81;100.00
55490;BME280;44029;52.956;4.772;2023-02-17T05:59:26;101577.22;;;9.79;100.00
55490;BME280;44029;52.956;4.772;2023-02-17T06:01:52;101579.91;;;9.85;100.00
55490;BME280;44029;52.956;4.772;2023-02-17T06:04:17;101563.47;;;9.85;100.00
55490;BME280;44029;52.956;4.772;2023-02-17T06:06:42;101562.88;;;9.83;100.00
55490;BME280;44029;52.956;4.772;2023-02-17T06:09:08;101570.00;;;9.84;100.00
55490;BME280;44029;52.956;4.772;2023-02-17T06:11:33;101562.72;;;9.97;100.00
55490;BME280;44029;52.956;4.772;2023-02-17T06:13:58;101566.81;;;9.87;100.00
55490;BME280;44029;52.956;4.772;2023-02-17T06:16:24;101563.81;;;9.96;100.00
55490;BME280;44029;52.956;4.772;2023-02-17T06:18:49;101556.41;;;9.96;100.00
55490;BME280;44029;52.956;4.772;2023-02-17T06:21:14;101570.94;;;9.97;100.00
55490;BME280;44029;52.956;4.772;2023-02-17T06:23:40;101564.03;;;9.94;100.00
55490;BME280;44029;52.956;4.772;2023-02-17T06:26:05;101564.16;;;9.99;100.00
55490;BME280;44029;52.956;4.772;2023-02-17T06:28:30;101556.78;;;10.00;100.00
55490;BME280;44029;52.956;4.772;2023-02-17T06:30:56;101551.94;;;10.02;100.00
55490;BME280;44029;52.956;4.772;2023-02-17T06:33:21;101547.44;;;10.07;100.00
55490;BME280;44029;52.956;4.772;2023-02-17T06:35:50;101536.41;;;10.14;100.00
55490;BME280;44029;52.956;4.772;2023-02-17T06:38:16;101536.47;;;10.07;100.00
55490;BME280;44029;52.956;4.772;2023-02-17T06:40:42;101542.13;;;10.13;100.00
55490;BME280;44029;52.956;4.772;2023-02-17T06:43:07;101541.81;;;10.02;100.00
55490;BME280;44029;52.956;4.772;2023-02-17T06:45:33;101538.47;;;10.00;100.00
55490;BME280;44029;52.956;4.772;2023-02-17T06:47:58;101539.91;;;10.03;100.00
55490;BME280;44029;52.956;4.772;2023-02-17T06:50:23;101535.06;;;10.05;100.00
55490;BME280;44029;52.956;4.772;2023-02-17T06:52:49;101545.53;;;10.08;100.00
55490;BME280;44029;52.956;4.772;2023-02-17T06:55:14;101535.94;;;10.17;100.00
55490;BME280;44029;52.956;4.772;2023-02-17T06:57:40;101531.63;;;10.10;100.00
55490;BME280;44029;52.956;4.772;2023-02-17T07:00:06;101537.13;;;10.21;100.00
55490;BME280;44029;52.956;4.772;2023-02-17T07:02:31;101537.47;;;10.13;100.00
55490;BME280;44029;52.956;4.772;2023-02-17T07:04:56;101551.47;;;10.05;100.00
55490;BME280;44029;52.956;4.772;2023-02-17T07:07:22;101551.00;;;10.08;100.00
55490;BME280;44029;52.956;4.772;2023-02-17T07:09:47;101540.75;;;10.03;100.00
55490;BME280;44029;52.956;4.772;2023-02-17T07:12:12;101551.94;;;10.02;100.00
55490;BME280;44029;52.956;4.772;2023-02-17T07:14:38;101545.69;;;9.95;100.00
55490;BME280;44029;52.956;4.772;2023-02-17T07:17:03;101544.53;;;10.02;100.00
55490;BME280;44029;52.956;4.772;2023-02-17T07:19:29;101544.69;;;10.07;100.00
55490;BME280;44029;52.956;4.772;2023-02-17T07:21:54;101546.28;;;9.97;100.00
55490;BME280;44029;52.956;4.772;2023-02-17T07:24:20;101547.44;;;10.07;100.00
55490;BME280;44029;52.956;4.772;2023-02-17T07:26:45;101553.34;;;10.04;100.00
55490;BME280;44029;52.956;4.772;2023-02-17T07:29:10;101535.34;;;10.15;100.00
55490;BME280;44029;52.956;4.772;2023-02-17T07:31:36;101538.91;;;10.16;100.00
55490;BME280;44029;52.956;4.772;2023-02-17T07:34:02;101519.84;;;10.09;100.00
55490;BME280;44029;52.956;4.772;2023-02-17T07:36:28;101524.22;;;10.10;100.00
55490;BME280;44029;52.956;4.772;2023-02-17T07:38:53;101532.59;;;9.97;100.00
55490;BME280;44029;52.956;4.772;2023-02-17T07:41:20;101526.34;;;10.08;100.00
55490;BME280;44029;52.956;4.772;2023-02-17T07:43:47;101528.81;;;10.16;100.00
55490;BME280;44029;52.956;4.772;2023-02-17T07:46:13;101538.50;;;10.12;100.00
55490;BME280;44029;52.956;4.772;2023-02-17T07:48:39;101543.25;;;10.23;100.00
55490;BME280;44029;52.956;4.772;2023-02-17T07:51:14;101546.28;;;10.34;100.00
55490;BME280;44029;52.956;4.772;2023-02-17T07:53:40;101557.28;;;10.27;100.00
55490;BME280;44029;52.956;4.772;2023-02-17T07:56:08;101552.66;;;10.28;100.00
55490;BME280;44029;52.956;4.772;2023-02-17T07:58:35;101537.13;;;10.21;100.00
55490;BME280;44029;52.956;4.772;2023-02-17T08:01:08;101526.19;;;10.40;100.00
55490;BME280;44029;52.956;4.772;2023-02-17T08:03:34;101517.59;;;10.18;100.00
55490;BME280;44029;52.956;4.772;2023-02-17T08:06:00;101511.28;;;10.17;100.00
55490;BME280;44029;52.956;4.772;2023-02-17T08:08:25;101495.69;;;10.18;100.00
55490;BME280;44029;52.956;4.772;2023-02-17T08:11:14;101494.25;;;10.34;100.00
55490;BME280;44029;52.956;4.772;2023-02-17T08:13:58;101514.50;;;10.33;100.00
55490;BME280;44029;52.956;4.772;2023-02-17T08:16:24;101541.34;;;10.24;100.00
55490;BME280;44029;52.956;4.772;2023-02-17T08:18:55;101547.25;;;10.39;100.00
55490;BME280;44029;52.956;4.772;2023-02-17T08:21:21;101545.47;;;10.33;100.00
55490;BME280;44029;52.956;4.772;2023-02-17T08:23:47;101535.94;;;10.36;100.00
55490;BME280;44029;52.956;4.772;2023-02-17T08:26:13;101508.41;;;10.31;100.00
55490;BME280;44029;52.956;4.772;2023-02-17T08:28:39;101517.34;;;10.38;100.00
55490;BME280;44029;52.956;4.772;2023-02-17T08:31:04;101528.44;;;10.31;100.00
55490;BME280;44029;52.956;4.772;2023-02-17T08:33:29;101539.16;;;10.33;100.00
55490;BME280;44029;52.956;4.772;2023-02-17T08:35:55;101537.47;;;10.32;100.00
55490;BME280;44029;52.956;4.772;2023-02-17T08:38:20;101542.13;;;10.31;100.00
55490;BME280;44029;52.956;4.772;2023-02-17T08:40:46;101543.91;;;10.37;100.00
55490;BME280;44029;52.956;4.772;2023-02-17T08:43:11;101529.44;;;10.30;100.00
55490;BME280;44029;52.956;4.772;2023-02-17T08:45:36;101531.06;;;10.38;100.00
55490;BME280;44029;52.956;4.772;2023-02-17T08:48:03;101527.66;;;10.54;100.00
55490;BME280;44029;52.956;4.772;2023-02-17T08:50:29;101525.28;;;10.46;100.00
55490;BME280;44029;52.956;4.772;2023-02-17T08:52:55;101516.31;;;10.39;100.00
55490;BME280;44029;52.956;4.772;2023-02-17T08:55:20;101507.75;;;10.47;100.00
55490;BME280;44029;52.956;4.772;2023-02-17T08:57:47;101515.59;;;10.43;100.00
55490;BME280;44029;52.956;4.772;2023-02-17T09:00:14;101506.31;;;10.44;100.00
55490;BME280;44029;52.956;4.772;2023-02-17T09:02:40;101514.09;;;10.59;100.00
55490;BME280;44029;52.956;4.772;2023-02-17T09:05:08;101511.13;;;10.61;100.00
55490;BME280;44029;52.956;4.772;2023-02-17T09:07:34;101512.94;;;10.67;100.00
55490;BME280;44029;52.956;4.772;2023-02-17T09:10:00;101509.00;;;10.63;100.00
55490;BME280;44029;52.956;4.772;2023-02-17T09:12:25;101507.66;;;10.54;100.00
55490;BME280;44029;52.956;4.772;2023-02-17T09:14:50;101519.59;;;10.59;100.00
55490;BME280;44029;52.956;4.772;2023-02-17T09:17:16;101503.75;;;10.61;100.00
55490;BME280;44029;52.956;4.772;2023-02-17T09:19:41;101525.53;;;10.56;100.00
55490;BME280;44029;52.956;4.772;2023-02-17T09:22:06;101541.06;;;10.62;100.00
55490;BME280;44029;52.956;4.772;2023-02-17T09:24:32;101515.81;;;10.72;100.00
55490;BME280;44029;52.956;4.772;2023-02-17T09:27:00;101512.94;;;10.79;100.00
55490;BME280;44029;52.956;4.772;2023-02-17T09:29:25;101510.47;;;10.77;100.00
55490;BME280;44029;52.956;4.772;2023-02-17T09:31:50;101479.72;;;10.75;100.00
55490;BME280;44029;52.956;4.772;2023-02-17T09:34:16;101489.75;;;10.93;100.00
55490;BME280;44029;52.956;4.772;2023-02-17T09:36:41;101484.25;;;10.93;100.00
55490;BME280;44029;52.956;4.772;2023-02-17T09:39:07;101508.00;;;10.99;100.00
55490;BME280;44029;52.956;4.772;2023-02-17T09:41:38;101526.00;;;11.07;100.00
55490;BME280;44029;52.956;4.772;2023-02-17T09:44:15;101514.53;;;11.10;100.00
55490;BME280;44029;52.956;4.772;2023-02-17T09:46:44;101540.28;;;10.97;100.00
55490;BME280;44029;52.956;4.772;2023-02-17T09:49:14;101540.91;;;10.99;100.00
55490;BME280;44029;52.956;4.772;2023-02-17T09:51:52;101543.66;;;10.99;100.00
55490;BME280;44029;52.956;4.772;2023-02-17T09:56:49;101553.31;;;11.14;100.00
55490;BME280;44029;52.956;4.772;2023-02-17T09:59:21;101561.91;;;11.29;100.00
55490;BME280;44029;52.956;4.772;2023-02-17T10:01:49;101543.19;;;11.26;100.00
55490;BME280;44029;52.956;4.772;2023-02-17T10:04:25;101556.44;;;11.41;100.00
55490;BME280;44029;52.956;4.772;2023-02-17T10:06:58;101571.22;;;11.28;100.00
55490;BME280;44029;52.956;4.772;2023-02-17T10:09:50;101571.56;;;11.20;100.00
55490;BME280;44029;52.956;4.772;2023-02-17T10:12:31;101579.69;;;11.38;100.00
55490;BME280;44029;52.956;4.772;2023-02-17T10:15:14;101577.69;;;11.46;100.00
55490;BME280;44029;52.956;4.772;2023-02-17T10:20:59;101583.75;;;11.48;100.00
55490;BME280;44029;52.956;4.772;2023-02-17T10:23:27;101575.88;;;11.39;100.00
55490;BME280;44029;52.956;4.772;2023-02-17T10:26:47;101590.19;;;11.77;100.00
55490;BME280;44029;52.956;4.772;2023-02-17T10:29:30;101597.34;;;12.02;100.00
55490;BME280;44029;52.956;4.772;2023-02-17T10:34:37;101599.63;;;11.81;100.00
55490;BME280;44029;52.956;4.772;2023-02-17T10:37:20;101591.25;;;11.88;100.00
55490;BME280;44029;52.956;4.772;2023-02-17T10:39:49;101599.88;;;12.03;100.00
55490;BME280;44029;52.956;4.772;2023-02-17T10:42:23;101587.19;;;11.78;100.00
55490;BME280;44029;52.956;4.772;2023-02-17T10:44:51;101595.19;;;11.92;100.00
55490;BME280;44029;52.956;4.772;2023-02-17T10:47:20;101570.50;;;11.80;100.00
55490;BME280;44029;52.956;4.772;2023-02-17T10:49:50;101572.28;;;11.74;100.00
55490;BME280;44029;52.956;4.772;2023-02-17T10:52:18;101580.53;;;11.74;100.00
55490;BME280;44029;52.956;4.772;2023-02-17T10:54:53;101586.47;;;11.71;100.00
55490;BME280;44029;52.956;4.772;2023-02-17T10:57:20;101579.94;;;11.60;100.00
55490;BME280;44029;52.956;4.772;2023-02-17T10:59:48;101588.28;;;11.77;100.00
55490;BME280;44029;52.956;4.772;2023-02-17T11:02:27;101593.63;;;11.84;100.00
55490;BME280;44029;52.956;4.772;2023-02-17T11:04:57;101592.22;;;11.58;100.00
55490;BME280;44029;52.956;4.772;2023-02-17T11:07:35;101578.50;;;11.82;100.00
55490;BME280;44029;52.956;4.772;2023-02-17T11:10:15;101586.25;;;11.85;100.00
55490;BME280;44029;52.956;4.772;2023-02-17T11:12:43;101589.94;;;11.78;100.00
55490;BME280;44029;52.956;4.772;2023-02-17T11:15:36;101602.84;;;12.02;100.00
55490;BME280;44029;52.956;4.772;2023-02-17T11:18:18;101572.75;;;11.95;100.00
55490;BME280;44029;52.956;4.772;2023-02-17T11:20:45;101586.72;;;11.82;100.00
55490;BME280;44029;52.956;4.772;2023-02-17T11:25:39;101580.88;;;11.90;100.00
55490;BME280;44029;52.956;4.772;2023-02-17T11:28:10;101575.50;;;12.07;100.00
55490;BME280;44029;52.956;4.772;2023-02-17T11:30:37;101576.75;;;12.28;100.00
55490;BME280;44029;52.956;4.772;2023-02-17T11:33:13;101584.28;;;12.21;100.00
55490;BME280;44029;52.956;4.772;2023-02-17T11:38:15;101610.94;;;12.08;100.00
55490;BME280;44029;52.956;4.772;2023-02-17T11:40:54;101630.41;;;12.18;100.00
55490;BME280;44029;52.956;4.772;2023-02-17T11:43:21;101629.69;;;12.11;100.00
55490;BME280;44029;52.956;4.772;2023-02-17T11:46:22;101623.47;;;12.28;100.00
55490;BME280;44029;52.956;4.772;2023-02-17T11:55:14;101635.19;;;12.11;100.00
55490;BME280;44029;52.956;4.772;2023-02-17T11:57:35;101639.25;;;12.09;100.00
55490;BME280;44029;52.956;4.772;2023-02-17T12:00:20;101655.25;;;12.00;100.00
55490;BME280;44029;52.956;4.772;2023-02-17T12:11:08;101666.94;;;11.84;100.00
55490;BME280;44029;52.956;4.772;2023-02-17T12:16:23;101657.28;;;12.16;100.00
55490;BME280;44029;52.956;4.772;2023-02-17T12:19:00;101663.13;;;12.08;100.00
55490;BME280;44029;52.956;4.772;2023-02-17T12:21:50;101672.56;;;12.01;100.00
55490;BME280;44029;52.956;4.772;2023-02-17T12:24:51;101654.41;;;12.11;100.00
55490;BME280;44029;52.956;4.772;2023-02-17T12:33:11;101649.09;;;12.45;100.00
55490;BME280;44029;52.956;4.772;2023-02-17T12:35:51;101679.91;;;12.47;100.00
55490;BME280;44029;52.956;4.772;2023-02-17T12:38:31;101685.88;;;12.56;100.00
55490;BME280;44029;52.956;4.772;2023-02-17T12:41:09;101682.34;;;12.44;100.00
55490;BME280;44029;52.956;4.772;2023-02-17T12:43:40;101670.81;;;12.59;100.00
55490;BME280;44029;52.956;4.772;2023-02-17T12:46:11;101671.53;;;12.54;100.00
55490;BME280;44029;52.956;4.772;2023-02-17T12:51:32;101665.75;;;12.79;100.00
55490;BME280;44029;52.956;4.772;2023-02-17T12:58:54;101683.63;;;12.41;100.00
55490;BME280;44029;52.956;4.772;2023-02-17T13:01:24;101678.56;;;12.62;100.00
55490;BME280;44029;52.956;4.772;2023-02-17T13:03:50;101676.91;;;12.49;100.00
55490;BME280;44029;52.956;4.772;2023-02-17T13:06:38;101679.13;;;12.75;100.00
55490;BME280;44029;52.956;4.772;2023-02-17T13:09:38;101680.38;;;12.56;100.00
55490;BME280;44029;52.956;4.772;2023-02-17T13:14:53;101693.31;;;12.32;100.00
55490;BME280;44029;52.956;4.772;2023-02-17T13:17:32;101700.84;;;12.25;100.00
55490;BME280;44029;52.956;4.772;2023-02-17T13:22:39;101697.41;;;11.94;100.00
55490;BME280;44029;52.956;4.772;2023-02-17T13:25:07;101700.63;;;11.91;100.00
55490;BME280;44029;52.956;4.772;2023-02-17T13:27:37;101723.88;;;11.88;100.00
55490;BME280;44029;52.956;4.772;2023-02-17T13:30:07;101723.75;;;11.83;100.00
55490;BME280;44029;52.956;4.772;2023-02-17T13:32:35;101739.63;;;11.81;100.00
55490;BME280;44029;52.956;4.772;2023-02-17T13:37:43;101730.72;;;12.09;100.00
55490;BME280;44029;52.956;4.772;2023-02-17T13:42:42;101726.19;;;12.03;100.00
55490;BME280;44029;52.956;4.772;2023-02-17T13:45:24;101725.34;;;12.26;100.00
55490;BME280;44029;52.956;4.772;2023-02-17T13:47:51;101733.97;;;12.18;100.00
55490;BME280;44029;52.956;4.772;2023-02-17T13:50:35;101733.81;;;12.25;100.00
55490;BME280;44029;52.956;4.772;2023-02-17T13:53:04;101739.31;;;12.25;100.00
55490;BME280;44029;52.956;4.772;2023-02-17T13:55:30;101735.97;;;12.23;100.00
55490;BME280;44029;52.956;4.772;2023-02-17T13:57:57;101729.78;;;12.27;100.00
55490;BME280;44029;52.956;4.772;2023-02-17T14:00:29;101733.81;;;12.25;100.00
55490;BME280;44029;52.956;4.772;2023-02-17T14:03:04;101754.16;;;12.24;100.00
55490;BME280;44029;52.956;4.772;2023-02-17T14:05:41;101745.41;;;12.38;100.00
55490;BME280;44029;52.956;4.772;2023-02-17T14:08:37;101757.69;;;12.36;100.00